Time;durP1;ratioP1;P1;durP2;ratioP2;P2;SDS_P1;SDS_P2;PMS_P1;PMS_P2;Temp;Humidity;BMP_temperature;BMP_pressure;BME280_temperature;BME280_humidity;BME280_pressure;Samples;Min_cycle;Max_cycle;Signal;HPM_P1;HPM_P2
2023/12/11 00:01:23;;;;;;;37.60;23.70;;;;;;;1.62;100.00;99108.92;102948;1261;138555;-81
2023/12/11 00:03:50;;;;;;;38.30;24.00;;;;;;;1.64;100.00;99107.69;103092;1257;97790;-80
2023/12/11 00:06:17;;;;;;;40.30;23.50;;;;;;;1.65;100.00;99109.73;103092;1261;108154;-79
2023/12/11 00:08:44;;;;;;;38.10;22.60;;;;;;;1.68;100.00;99101.29;103018;1258;138781;-80
2023/12/11 00:11:12;;;;;;;36.60;22.80;;;;;;;1.68;100.00;99101.80;102408;1260;1003077;-81
2023/12/11 00:13:39;;;;;;;37.60;23.20;;;;;;;1.70;100.00;99096.95;102986;1258;140815;-81
2023/12/11 00:16:07;;;;;;;38.80;22.90;;;;;;;1.70;100.00;99097.14;102370;1258;1002965;-80
2023/12/11 00:18:35;;;;;;;38.90;23.30;;;;;;;1.71;100.00;99098.33;102307;1258;1003082;-80
2023/12/11 00:21:02;;;;;;;39.00;23.20;;;;;;;1.71;100.00;99087.19;103085;1261;97807;-79
2023/12/11 00:23:29;;;;;;;36.50;22.30;;;;;;;1.73;100.00;99095.89;103015;1261;111586;-79
2023/12/11 00:25:56;;;;;;;34.30;22.20;;;;;;;1.73;100.00;99097.09;102968;1258;139299;-79
2023/12/11 00:28:25;;;;;;;31.50;20.90;;;;;;;1.74;100.00;99092.63;102343;1261;1002748;-79
2023/12/11 00:30:54;;;;;;;39.10;22.50;;;;;;;1.75;100.00;99091.40;102898;1257;139052;-80
2023/12/11 00:33:21;;;;;;;33.30;21.10;;;;;;;1.76;100.00;99086.06;103015;1257;97714;-78
2023/12/11 00:35:48;;;;;;;32.70;21.20;;;;;;;1.77;100.00;99091.36;103110;1260;110243;-79
2023/12/11 00:38:15;;;;;;;37.20;21.30;;;;;;;1.80;100.00;99083.10;102257;1257;1002993;-79
2023/12/11 00:40:42;;;;;;;35.70;20.70;;;;;;;1.82;100.00;99081.21;103095;1257;97835;-79
2023/12/11 00:43:09;;;;;;;36.80;21.30;;;;;;;1.84;100.00;99083.39;102846;1261;138728;-79
2023/12/11 00:45:37;;;;;;;31.40;20.10;;;;;;;1.85;100.00;99088.69;103093;1260;97690;-79
2023/12/11 00:48:04;;;;;;;32.10;20.00;;;;;;;1.85;100.00;99085.09;103070;1260;111536;-79
2023/12/11 00:50:31;;;;;;;30.80;19.80;;;;;;;1.88;100.00;99087.61;102925;1258;138510;-79
2023/12/11 00:52:57;;;;;;;35.80;20.40;;;;;;;1.89;100.00;99083.66;103073;1257;97818;-79
2023/12/11 00:55:24;;;;;;;31.40;18.90;;;;;;;1.90;100.00;99084.66;102822;1260;139309;-79
2023/12/11 00:57:51;;;;;;;33.40;19.80;;;;;;;1.93;100.00;99085.13;103030;1257;97816;-79
2023/12/11 01:00:19;;;;;;;35.20;19.90;;;;;;;1.95;100.00;99083.89;103066;1261;111721;-79
2023/12/11 01:02:47;;;;;;;33.20;19.30;;;;;;;1.97;100.00;99080.26;102923;1257;138690;-79
2023/12/11 01:05:14;;;;;;;31.80;18.90;;;;;;;1.98;100.00;99077.34;103107;1260;98364;-79
2023/12/11 01:07:41;;;;;;;30.10;18.30;;;;;;;2.00;100.00;99078.16;103008;1260;139172;-80
2023/12/11 01:10:10;;;;;;;28.40;18.00;;;;;;;2.01;100.00;99079.70;103146;1257;98132;-80
2023/12/11 01:12:37;;;;;;;31.80;18.30;;;;;;;2.02;100.00;99076.09;102413;1257;1002933;-80
2023/12/11 01:15:05;;;;;;;30.40;19.10;;;;;;;2.03;100.00;99071.43;103182;1261;106847;-81
2023/12/11 01:17:31;;;;;;;30.00;17.90;;;;;;;2.04;100.00;99072.42;103136;1260;98413;-80
2023/12/11 01:20:07;;;;;;;30.10;18.50;;;;;;;2.06;100.00;99068.45;103072;1260;139820;-79
2023/12/11 01:22:35;;;;;;;33.60;19.70;;;;;;;2.08;100.00;99064.31;102389;1256;1002526;-79
2023/12/11 01:25:02;;;;;;;30.10;18.40;;;;;;;2.10;100.00;99064.10;103046;1259;139021;-79
2023/12/11 01:27:30;;;;;;;30.90;18.00;;;;;;;2.08;100.00;99059.84;103115;1260;106747;-78
2023/12/11 01:29:58;;;;;;;30.70;18.00;;;;;;;2.11;100.00;99061.33;103174;1257;98509;-77
2023/12/11 01:32:25;;;;;;;26.70;17.60;;;;;;;2.13;100.00;99059.58;103232;1259;138689;-79
2023/12/11 01:34:52;;;;;;;32.80;18.80;;;;;;;2.14;100.00;99053.23;103078;1260;97729;-81
2023/12/11 01:37:19;;;;;;;29.40;17.70;;;;;;;2.15;100.00;99049.27;103025;1260;138775;-81
2023/12/11 01:39:46;;;;;;;30.10;18.00;;;;;;;2.15;100.00;99049.11;103111;1257;107140;-81
2023/12/11 01:42:13;;;;;;;30.20;17.70;;;;;;;2.18;100.00;99052.50;103139;1257;97838;-80
2023/12/11 01:44:40;;;;;;;30.60;17.50;;;;;;;2.17;100.00;99052.85;102317;1256;1003014;-79
2023/12/11 01:47:07;;;;;;;29.00;16.60;;;;;;;2.16;100.00;99046.87;103096;1260;97775;-80
2023/12/11 01:49:35;;;;;;;27.50;17.00;;;;;;;2.15;100.00;99046.52;103067;1258;140379;-81
2023/12/11 01:52:03;;;;;;;30.20;17.30;;;;;;;2.16;100.00;99042.41;103084;1257;107203;-80
2023/12/11 01:54:30;;;;;;;31.50;18.20;;;;;;;2.17;100.00;99040.16;103179;1257;98418;-81
2023/12/11 01:56:57;;;;;;;33.00;17.50;;;;;;;2.19;100.00;99038.24;103014;1256;138493;-81
2023/12/11 01:59:24;;;;;;;30.10;17.80;;;;;;;2.21;100.00;99030.32;101661;1270;1003510;-81
2023/12/11 02:01:51;;;;;;;31.40;18.00;;;;;;;2.22;100.00;99029.26;103058;1257;138750;-80
2023/12/11 02:04:18;;;;;;;29.70;19.00;;;;;;;2.24;100.00;99024.61;103052;1260;108032;-80
2023/12/11 02:06:46;;;;;;;32.60;18.40;;;;;;;2.21;100.00;99028.07;102957;1260;139217;-79
2023/12/11 02:09:13;;;;;;;27.90;16.50;;;;;;;2.20;100.00;99023.98;103087;1257;106960;-80
2023/12/11 02:11:40;;;;;;;28.10;16.60;;;;;;;2.20;100.00;99026.21;103082;1258;97814;-80
2023/12/11 02:14:10;;;;;;;27.80;16.80;;;;;;;2.19;100.00;99023.14;103041;1261;138748;-80
2023/12/11 02:16:37;;;;;;;25.30;15.20;;;;;;;2.19;100.00;99017.85;102321;1257;1003472;-80
2023/12/11 02:19:04;;;;;;;26.50;15.50;;;;;;;2.18;100.00;99008.60;102960;1257;139011;-79
2023/12/11 02:21:31;;;;;;;27.40;15.80;;;;;;;2.20;100.00;99009.92;103065;1257;108261;-79
2023/12/11 02:24:04;;;;;;;27.10;15.60;;;;;;;2.22;100.00;99005.60;103059;1261;97804;-80
2023/12/11 02:26:31;;;;;;;25.90;14.60;;;;;;;2.24;100.00;99004.02;102973;1258;138824;-79
2023/12/11 02:28:58;;;;;;;26.10;14.90;;;;;;;2.25;100.00;99001.06;102991;1257;106000;-80
2023/12/11 02:31:24;;;;;;;24.80;15.00;;;;;;;2.29;100.00;99001.67;102947;1260;138659;-80
2023/12/11 02:33:51;;;;;;;24.70;16.00;;;;;;;2.32;100.00;98999.73;103094;1256;107316;-80
2023/12/11 02:36:18;;;;;;;25.10;16.40;;;;;;;2.35;100.00;98993.34;103055;1257;97686;-80
2023/12/11 02:38:45;;;;;;;29.80;17.30;;;;;;;2.36;100.00;98987.16;102934;1262;137911;-80
2023/12/11 02:41:12;;;;;;;26.00;16.40;;;;;;;2.34;100.00;98985.82;103048;1257;106462;-80
2023/12/11 02:43:39;;;;;;;27.70;16.30;;;;;;;2.33;100.00;98984.11;102995;1258;138968;-80
2023/12/11 02:46:06;;;;;;;28.40;15.60;;;;;;;2.33;100.00;98976.39;102270;1257;1002696;-79
2023/12/11 02:48:33;;;;;;;25.80;15.80;;;;;;;2.35;100.00;98967.12;103101;1257;97904;-79
2023/12/11 02:51:00;;;;;;;28.50;15.80;;;;;;;2.36;100.00;98949.43;102210;1256;1002895;-81
2023/12/11 02:53:27;;;;;;;27.40;16.20;;;;;;;2.36;100.00;98944.11;102330;1257;1002912;-80
2023/12/11 02:55:54;;;;;;;29.50;16.50;;;;;;;2.36;100.00;98939.65;102975;1260;138976;-81
2023/12/11 02:58:21;;;;;;;27.20;17.10;;;;;;;2.35;100.00;98941.71;102905;1257;106035;-81
2023/12/11 03:00:48;;;;;;;32.10;16.30;;;;;;;2.36;100.00;98948.90;102890;1260;138808;-81
2023/12/11 03:03:15;;;;;;;27.10;16.80;;;;;;;2.36;100.00;98959.19;103077;1257;111326;-80
2023/12/11 03:05:42;;;;;;;28.80;15.90;;;;;;;2.35;100.00;98970.72;102277;1256;1002684;-80
2023/12/11 03:08:09;;;;;;;27.40;16.10;;;;;;;2.34;100.00;98961.30;103009;1257;139586;-79
2023/12/11 03:10:36;;;;;;;30.70;16.90;;;;;;;2.33;100.00;98950.31;103096;1258;106950;-80
2023/12/11 03:13:03;;;;;;;29.00;16.40;;;;;;;2.32;100.00;98949.81;102962;1257;138820;-80
2023/12/11 03:15:32;;;;;;;30.40;16.90;;;;;;;2.31;100.00;98947.95;103077;1260;111491;-79
2023/12/11 03:17:59;;;;;;;29.90;16.90;;;;;;;2.30;100.00;98944.88;102268;1257;1003460;-79
2023/12/11 03:20:27;;;;;;;29.00;16.40;;;;;;;2.30;100.00;98946.95;103500;1257;138744;-78
2023/12/11 03:22:54;;;;;;;29.80;18.00;;;;;;;2.30;100.00;98948.33;103060;1257;107585;-78
2023/12/11 03:25:21;;;;;;;28.40;15.80;;;;;;;2.27;100.00;98959.70;102994;1257;138672;-78
2023/12/11 03:27:49;;;;;;;26.90;16.40;;;;;;;2.26;100.00;98964.52;103927;1257;110634;-78
2023/12/11 03:30:16;;;;;;;31.40;16.40;;;;;;;2.26;100.00;98972.76;103037;1260;107778;-78
2023/12/11 03:32:43;;;;;;;29.20;16.20;;;;;;;2.27;100.00;98966.40;102954;1257;138548;-77
2023/12/11 03:35:10;;;;;;;31.50;16.60;;;;;;;2.27;100.00;98960.22;103093;1260;107904;-77
2023/12/11 03:37:38;;;;;;;26.40;16.40;;;;;;;2.27;100.00;98959.88;102957;1258;138813;-78
2023/12/11 03:40:05;;;;;;;27.90;15.60;;;;;;;2.27;100.00;98961.59;103095;1257;111374;-78
2023/12/11 03:42:32;;;;;;;25.20;15.50;;;;;;;2.26;100.00;98961.27;102998;1257;107828;-79
2023/12/11 03:44:59;;;;;;;32.10;16.80;;;;;;;2.26;100.00;98948.91;103028;1256;139627;-78
2023/12/11 03:47:26;;;;;;;30.10;15.70;;;;;;;2.27;100.00;98945.30;102261;1256;1002931;-77
2023/12/11 03:49:54;;;;;;;25.60;15.80;;;;;;;2.28;100.00;98936.88;102941;1257;138888;-78
2023/12/11 03:52:21;;;;;;;30.50;16.20;;;;;;;2.28;100.00;98921.61;102329;1257;1003569;-78
2023/12/11 03:54:49;;;;;;;28.20;16.20;;;;;;;2.29;100.00;98916.61;102925;1258;139286;-78
2023/12/11 03:57:16;;;;;;;26.90;15.40;;;;;;;2.29;100.00;98909.59;103057;1256;98686;-79
2023/12/11 03:59:44;;;;;;;30.10;16.40;;;;;;;2.29;100.00;98910.45;103052;1257;107713;-79
2023/12/11 04:02:11;;;;;;;27.90;15.60;;;;;;;2.27;100.00;98906.20;102834;1257;138791;-78
2023/12/11 04:04:38;;;;;;;25.20;15.40;;;;;;;2.28;100.00;98909.09;103093;1260;111242;-79
2023/12/11 04:07:05;;;;;;;25.60;15.50;;;;;;;2.27;100.00;98903.44;102967;1260;138968;-79
2023/12/11 04:09:32;;;;;;;29.70;17.20;;;;;;;2.28;100.00;98897.09;103115;1256;98224;-79
2023/12/11 04:11:59;;;;;;;22.50;15.80;;;;;;;2.28;100.00;98896.22;103073;1260;107870;-78
2023/12/11 04:14:26;;;;;;;29.80;17.30;;;;;;;2.28;100.00;98899.99;102910;1256;139263;-79
2023/12/11 04:16:53;;;;;;;28.60;16.70;;;;;;;2.25;100.00;98902.46;102308;1256;1016334;-78
2023/12/11 04:19:20;;;;;;;26.80;15.40;;;;;;;2.20;100.00;98898.63;102928;1257;139439;-79
2023/12/11 04:21:47;;;;;;;26.60;16.00;;;;;;;2.18;100.00;98888.90;103077;1256;97792;-78
2023/12/11 04:24:14;;;;;;;28.70;15.50;;;;;;;2.16;100.00;98884.31;102326;1256;1003480;-78
2023/12/11 04:26:41;;;;;;;26.00;14.90;;;;;;;2.14;100.00;98871.80;102956;1256;139215;-79
2023/12/11 04:29:08;;;;;;;26.70;15.90;;;;;;;2.15;100.00;98862.88;103097;1256;111157;-79
2023/12/11 04:31:35;;;;;;;26.00;14.80;;;;;;;2.14;100.00;98852.10;102954;1258;140258;-79
2023/12/11 04:34:01;;;;;;;26.30;15.80;;;;;;;2.13;100.00;98851.09;103108;1260;98335;-80
2023/12/11 04:36:29;;;;;;;29.40;15.30;;;;;;;2.11;100.00;98856.25;103062;1257;108169;-79
2023/12/11 04:38:55;;;;;;;23.60;15.50;;;;;;;2.12;100.00;98858.31;102985;1260;138660;-80
2023/12/11 04:41:22;;;;;;;29.90;17.30;;;;;;;2.10;100.00;98855.61;103106;1260;110774;-79
2023/12/11 04:43:49;;;;;;;28.80;16.70;;;;;;;2.08;100.00;98856.84;102211;1260;1002470;-79
2023/12/11 04:46:16;;;;;;;32.00;16.20;;;;;;;2.04;100.00;98857.46;103086;1260;97734;-80
2023/12/11 04:48:43;;;;;;;28.20;16.00;;;;;;;2.00;100.00;98852.41;103068;1261;107124;-77
2023/12/11 04:51:11;;;;;;;29.60;15.90;;;;;;;1.97;100.00;98861.19;103111;1257;97805;-79
2023/12/11 04:53:37;;;;;;;29.30;15.60;;;;;;;1.94;100.00;98862.95;103095;1256;110459;-79
2023/12/11 04:56:09;;;;;;;29.00;15.00;;;;;;;1.93;100.00;98877.03;102930;1256;138558;-79
2023/12/11 04:58:36;;;;;;;28.40;14.90;;;;;;;1.93;100.00;98873.77;103061;1257;97727;-79
2023/12/11 05:01:03;;;;;;;27.10;14.90;;;;;;;1.93;100.00;98866.75;102952;1256;138924;-79
2023/12/11 05:03:30;;;;;;;26.00;14.70;;;;;;;1.96;100.00;98859.48;103087;1256;97798;-79
2023/12/11 05:05:58;;;;;;;27.60;15.10;;;;;;;1.99;100.00;98870.76;103035;1260;112643;-78
2023/12/11 05:08:25;;;;;;;31.30;16.50;;;;;;;2.01;100.00;98872.95;102965;1256;138618;-78
2023/12/11 05:10:55;;;;;;;28.00;16.50;;;;;;;2.03;100.00;98878.73;103040;1256;97725;-78
2023/12/11 05:13:22;;;;;;;28.10;15.60;;;;;;;2.01;100.00;98887.87;102934;1256;137787;-78
2023/12/11 05:15:49;;;;;;;28.00;15.50;;;;;;;2.00;100.00;98889.95;102968;1256;97784;-77
2023/12/11 05:18:16;;;;;;;25.90;15.40;;;;;;;2.00;100.00;98892.86;102873;1261;184182;-78
2023/12/11 05:20:43;;;;;;;28.60;15.20;;;;;;;2.00;100.00;98894.73;102882;1259;139791;-78
2023/12/11 05:23:10;;;;;;;25.60;15.30;;;;;;;2.02;100.00;98895.04;103053;1256;97813;-77
2023/12/11 05:25:37;;;;;;;27.20;15.10;;;;;;;2.04;100.00;98892.25;103236;1257;139063;-77
2023/12/11 05:28:04;;;;;;;32.00;15.40;;;;;;;2.08;100.00;98884.63;103053;1256;97810;-78
2023/12/11 05:30:31;;;;;;;25.60;14.50;;;;;;;2.11;100.00;98881.12;103138;1256;112201;-76
2023/12/11 05:32:59;;;;;;;29.40;16.80;;;;;;;2.14;100.00;98881.59;102188;1257;1003548;-76
2023/12/11 05:35:26;;;;;;;30.20;14.80;;;;;;;2.15;100.00;98881.40;103126;1256;98341;-79
2023/12/11 05:37:53;;;;;;;26.20;14.40;;;;;;;2.15;100.00;98880.19;102931;1256;138466;-77
2023/12/11 05:40:26;;;;;;;29.50;13.90;;;;;;;2.17;100.00;98876.92;103038;1256;97820;-77
2023/12/11 05:42:53;;;;;;;30.20;14.10;;;;;;;2.18;100.00;98872.10;102999;1257;140221;-77
2023/12/11 05:45:20;;;;;;;27.00;15.00;;;;;;;2.21;100.00;98871.52;102258;1259;1003335;-78
2023/12/11 05:47:47;;;;;;;25.60;13.80;;;;;;;2.24;100.00;98869.58;102952;1257;97986;-78
2023/12/11 05:50:14;;;;;;;29.30;13.60;;;;;;;2.25;100.00;98858.56;102968;1259;138501;-77
2023/12/11 05:52:41;;;;;;;27.50;14.30;;;;;;;2.26;100.00;98855.95;103080;1256;97784;-78
2023/12/11 05:55:09;;;;;;;24.40;13.20;;;;;;;2.29;100.00;98864.31;102952;1256;139930;-78
2023/12/11 05:57:36;;;;;;;24.90;12.60;;;;;;;2.26;100.00;98851.50;102310;1259;1003562;-83
2023/12/11 06:00:03;;;;;;;24.10;12.50;;;;;;;2.29;100.00;98848.69;102428;1256;1002791;-85
2023/12/11 06:02:30;;;;;;;27.10;13.20;;;;;;;2.30;100.00;98843.54;102871;1256;138942;-80
2023/12/11 06:04:57;;;;;;;30.50;13.70;;;;;;;2.31;100.00;98842.30;103047;1256;97806;-79
2023/12/11 06:07:24;;;;;;;25.50;13.40;;;;;;;2.32;100.00;98838.84;102961;1260;138738;-83
2023/12/11 06:09:51;;;;;;;26.10;13.10;;;;;;;2.33;100.00;98833.70;103068;1256;106730;-84
2023/12/11 06:12:18;;;;;;;22.00;11.50;;;;;;;2.33;100.00;98838.48;103121;1256;97797;-84
2023/12/11 06:14:45;;;;;;;26.80;13.60;;;;;;;2.33;100.00;98836.09;103003;1257;138917;-83
2023/12/11 06:17:15;;;;;;;25.10;12.90;;;;;;;2.35;100.00;98831.61;103084;1257;97772;-86
2023/12/11 06:19:44;;;;;;;25.40;13.30;;;;;;;2.35;100.00;98833.50;102901;1256;138615;-80
2023/12/11 06:22:11;;;;;;;31.20;14.20;;;;;;;2.35;100.00;98828.51;102344;1256;1002721;-79
2023/12/11 06:24:40;;;;;;;28.40;14.60;;;;;;;2.35;100.00;98827.49;103083;1256;97694;-76
2023/12/11 06:27:08;;;;;;;29.40;13.80;;;;;;;2.30;100.00;98828.25;102321;1256;1003158;-76
2023/12/11 06:29:35;;;;;;;30.50;13.60;;;;;;;2.29;100.00;98819.89;103123;1260;97813;-92
2023/12/11 06:32:03;;;;;;;22.30;12.90;;;;;;;2.29;100.00;98810.27;102141;1257;1002875;-91
2023/12/11 06:34:30;;;;;;;29.40;14.50;;;;;;;2.29;100.00;98810.79;103231;1256;106723;-90
2023/12/11 06:36:57;;;;;;;27.00;14.40;;;;;;;2.28;100.00;98800.19;102847;1263;138659;-83
2023/12/11 06:39:26;;;;;;;30.80;14.60;;;;;;;2.28;100.00;98802.41;102325;1256;1003146;-79
2023/12/11 06:41:54;;;;;;;27.20;13.50;;;;;;;2.28;100.00;98812.54;103068;1256;97697;-82
2023/12/11 06:44:22;;;;;;;26.90;12.90;;;;;;;2.27;100.00;98815.82;102966;1259;139689;-87
2023/12/11 06:46:49;;;;;;;30.70;14.60;;;;;;;2.26;100.00;98815.33;103063;1256;107242;-87
2023/12/11 06:49:16;;;;;;;29.00;13.60;;;;;;;2.24;100.00;98812.80;103063;1256;141252;-87
2023/12/11 06:51:43;;;;;;;24.20;13.00;;;;;;;2.23;100.00;98811.45;102325;1256;1016094;-87
2023/12/11 06:54:10;;;;;;;25.40;13.30;;;;;;;2.22;100.00;98807.02;103096;1259;97811;-85
2023/12/11 06:56:38;;;;;;;27.10;13.60;;;;;;;2.21;100.00;98804.98;102970;1260;140038;-85
2023/12/11 06:59:05;;;;;;;30.80;14.50;;;;;;;2.19;100.00;98811.20;102308;1256;1003542;-85
2023/12/11 07:01:34;;;;;;;32.10;14.40;;;;;;;2.15;100.00;98808.52;102955;1259;138363;-85
2023/12/11 07:04:02;;;;;;;30.20;14.40;;;;;;;2.12;100.00;98797.96;102554;1255;1003208;-88
2023/12/11 07:06:30;;;;;;;26.60;13.70;;;;;;;2.10;100.00;98799.88;103148;1255;97894;-86
2023/12/11 07:08:57;;;;;;;29.50;13.80;;;;;;;2.10;100.00;98794.05;103108;1256;138760;-87
2023/12/11 07:11:24;;;;;;;27.20;13.60;;;;;;;2.10;100.00;98796.13;103235;1259;108150;-86
2023/12/11 07:13:51;;;;;;;30.30;13.60;;;;;;;2.08;100.00;98790.15;101600;1255;1003608;-86
2023/12/11 07:16:18;;;;;;;31.70;15.20;;;;;;;2.08;100.00;98774.90;103110;1256;109115;-87
2023/12/11 07:18:45;;;;;;;29.10;14.10;;;;;;;2.10;100.00;98770.39;102422;1256;1002905;-85
2023/12/11 07:21:17;;;;;;;26.20;13.90;;;;;;;2.10;100.00;98763.89;103191;1259;111416;-86
2023/12/11 07:23:43;;;;;;;25.30;14.20;;;;;;;2.10;100.00;98764.91;103091;1256;107399;-88
2023/12/11 07:26:10;;;;;;;26.70;14.10;;;;;;;2.10;100.00;98758.90;103068;1259;138798;-88
2023/12/11 07:28:38;;;;;;;26.60;14.20;;;;;;;2.10;100.00;98764.20;103135;1256;107803;-88
2023/12/11 07:31:06;;;;;;;26.90;14.50;;;;;;;2.12;100.00;98764.70;102979;1259;138823;-88
2023/12/11 07:33:34;;;;;;;26.00;14.30;;;;;;;2.12;100.00;98757.98;103226;1256;111837;-87
2023/12/11 07:36:01;;;;;;;29.00;14.30;;;;;;;2.16;100.00;98756.23;102380;1256;1002843;-88
2023/12/11 07:38:28;;;;;;;25.50;14.30;;;;;;;2.17;100.00;98758.09;103086;1256;139298;-85
2023/12/11 07:40:56;;;;;;;24.40;14.00;;;;;;;2.18;100.00;98762.70;103144;1255;107913;-86
2023/12/11 07:43:23;;;;;;;29.70;13.90;;;;;;;2.19;100.00;98759.41;103069;1259;138711;-86
2023/12/11 07:45:51;;;;;;;27.50;13.70;;;;;;;2.20;100.00;98745.50;103101;1256;111379;-84
2023/12/11 07:48:18;;;;;;;25.90;13.90;;;;;;;2.19;100.00;98755.64;102369;1256;1003782;-85
2023/12/11 07:50:45;;;;;;;23.50;13.00;;;;;;;2.19;100.00;98748.95;101600;1256;1003422;-84
2023/12/11 07:53:12;;;;;;;24.30;13.60;;;;;;;2.19;100.00;98745.00;103206;1257;108157;-84
2023/12/11 07:55:42;;;;;;;22.10;13.40;;;;;;;2.18;100.00;98729.92;103030;1256;138690;-84
2023/12/11 07:58:10;;;;;;;23.10;13.70;;;;;;;2.17;100.00;98728.23;103174;1256;110433;-82
2023/12/11 08:00:37;;;;;;;27.50;13.60;;;;;;;2.19;100.00;98740.89;103144;1259;107471;-84
2023/12/11 08:03:06;;;;;;;24.80;13.50;;;;;;;2.19;100.00;98737.30;103013;1256;138459;-82
2023/12/11 08:05:33;;;;;;;25.50;12.40;;;;;;;2.19;100.00;98735.08;103039;1256;107707;-82
2023/12/11 08:08:01;;;;;;;26.10;14.00;;;;;;;2.18;100.00;98733.70;102933;1259;138677;-80
2023/12/11 08:10:29;;;;;;;25.90;13.50;;;;;;;2.18;100.00;98728.23;103115;1259;110495;-82
2023/12/11 08:12:55;;;;;;;28.30;13.40;;;;;;;2.17;100.00;98724.15;102897;1260;138633;-82
2023/12/11 08:15:25;;;;;;;25.40;12.30;;;;;;;2.17;100.00;98718.30;103086;1260;98344;-82
2023/12/11 08:17:52;;;;;;;23.90;12.20;;;;;;;2.16;100.00;98720.22;103118;1256;107348;-83
2023/12/11 08:20:21;;;;;;;23.20;12.10;;;;;;;2.15;100.00;98709.59;102947;1256;139656;-82
2023/12/11 08:22:48;;;;;;;23.30;12.60;;;;;;;2.15;100.00;98711.64;102869;1256;111613;-83
2023/12/11 08:25:15;;;;;;;21.40;10.70;;;;;;;2.15;100.00;98712.67;102919;1256;142584;-81
2023/12/11 08:27:42;;;;;;;19.50;11.50;;;;;;;2.16;100.00;98707.86;103072;1256;98326;-83
2023/12/11 08:30:12;;;;;;;19.60;11.20;;;;;;;2.18;100.00;98707.84;103061;1257;108154;-82
2023/12/11 08:32:40;;;;;;;21.70;11.50;;;;;;;2.20;100.00;98704.70;103855;1257;138742;-80
2023/12/11 08:35:09;;;;;;;21.50;11.60;;;;;;;2.21;100.00;98706.55;103087;1259;112185;-79
2023/12/11 08:37:36;;;;;;;23.10;11.60;;;;;;;2.22;100.00;98703.61;104312;1256;137578;-81
2023/12/11 08:40:04;;;;;;;17.10;10.40;;;;;;;2.23;100.00;98693.48;103592;1259;98315;-81
2023/12/11 08:42:36;;;;;;;16.50;10.40;;;;;;;2.23;100.00;98688.66;103070;1256;106356;-75
2023/12/11 08:45:10;;;;;;;21.60;10.70;;;;;;;2.19;100.00;98677.77;102938;1256;97755;-76
2023/12/11 08:47:41;;;;;;;19.20;11.20;;;;;;;2.28;100.00;98684.59;102665;1256;1002875;-74
2023/12/11 08:50:11;;;;;;;19.40;11.20;;;;;;;2.29;100.00;98681.13;102897;1256;138618;-73
2023/12/11 08:52:39;;;;;;;19.20;10.60;;;;;;;2.26;100.00;98673.33;103078;1255;98293;-74
2023/12/11 08:55:07;;;;;;;18.90;10.70;;;;;;;2.26;100.00;98666.13;102776;1263;138473;-76
2023/12/11 08:57:34;;;;;;;21.60;10.20;;;;;;;2.27;100.00;98663.35;104432;1256;96147;-76
2023/12/11 09:00:01;;;;;;;19.60;9.80;;;;;;;2.30;100.00;98662.42;104427;1256;111028;-75
2023/12/11 09:02:28;;;;;;;14.10;9.10;;;;;;;2.33;100.00;98661.33;103461;1256;1002462;-71
2023/12/11 09:04:55;;;;;;;15.20;9.20;;;;;;;2.37;100.00;98667.76;104399;1256;96438;-70
2023/12/11 09:07:22;;;;;;;17.20;9.50;;;;;;;2.40;100.00;98651.54;103453;1256;138972;-71
2023/12/11 09:09:49;;;;;;;17.50;9.30;;;;;;;2.45;100.00;98654.50;102172;1256;1002837;-72
2023/12/11 09:12:16;;;;;;;18.30;9.40;;;;;;;2.49;100.00;98657.65;103078;1257;110693;-71
2023/12/11 09:14:58;;;;;;;16.60;9.00;;;;;;;2.55;100.00;98642.45;102762;1256;138607;-71
2023/12/11 09:17:25;;;;;;;17.90;9.90;;;;;;;2.57;100.00;98644.77;103029;1256;97910;-73
2023/12/11 09:19:55;;;;;;;18.20;8.90;;;;;;;2.55;100.00;98646.04;102176;1256;1003092;-71
2023/12/11 09:22:22;;;;;;;17.40;9.10;;;;;;;2.56;100.00;98633.83;102999;1260;97839;-71
2023/12/11 09:24:50;;;;;;;16.80;8.70;;;;;;;2.57;100.00;98636.71;102017;1256;1003536;-72
2023/12/11 09:27:17;;;;;;;17.80;8.70;;;;;;;2.56;100.00;98639.99;103019;1256;107935;-72
2023/12/11 09:29:44;;;;;;;17.60;8.70;;;;;;;2.59;100.00;98634.61;102210;1256;1003012;-70
2023/12/11 09:32:10;;;;;;;19.20;8.70;;;;;;;2.61;100.00;98636.42;102114;1256;1003689;-69
2023/12/11 09:34:37;;;;;;;14.30;8.20;;;;;;;2.64;100.00;98636.87;103004;1256;97832;-69
2023/12/11 09:37:05;;;;;;;14.10;7.50;;;;;;;2.66;100.00;98626.87;102796;1260;138590;-69
2023/12/11 09:39:32;;;;;;;16.00;8.20;;;;;;;2.69;100.00;98626.96;102337;1256;1003832;-72
2023/12/11 09:41:59;;;;;;;16.80;9.10;;;;;;;2.71;100.00;98626.58;103072;1256;97785;-70
2023/12/11 09:44:27;;;;;;;18.50;9.30;;;;;;;2.71;100.00;98625.55;103020;1256;138471;-69
2023/12/11 09:46:58;;;;;;;19.50;9.00;;;;;;;2.69;100.00;98624.39;103156;1257;98784;-71
2023/12/11 09:49:26;;;;;;;14.30;8.50;;;;;;;2.69;100.00;98611.17;103076;1256;138485;-68
2023/12/11 09:51:55;;;;;;;16.90;8.50;;;;;;;2.71;100.00;98617.66;102338;1256;1003240;-69
2023/12/11 09:54:22;;;;;;;15.50;7.90;;;;;;;2.71;100.00;98614.39;103146;1256;97921;-69
2023/12/11 09:56:49;;;;;;;18.00;8.00;;;;;;;2.72;100.00;98609.89;102950;1257;138428;-68
2023/12/11 09:59:17;;;;;;;14.60;7.80;;;;;;;2.72;100.00;98607.32;104413;1256;96032;-69
2023/12/11 10:01:45;;;;;;;18.10;7.80;;;;;;;2.74;100.00;98600.57;103620;1259;139005;-68
2023/12/11 10:04:12;;;;;;;12.40;7.40;;;;;;;2.76;100.00;98591.75;103014;1260;106649;-69
2023/12/11 10:06:39;;;;;;;14.30;6.90;;;;;;;2.79;100.00;98592.89;103137;1256;97737;-69
2023/12/11 10:09:06;;;;;;;14.80;7.20;;;;;;;2.79;100.00;98593.05;102958;1256;138228;-69
2023/12/11 10:11:33;;;;;;;14.20;7.40;;;;;;;2.80;100.00;98591.15;103095;1256;97935;-70
2023/12/11 10:14:11;;;;;;;16.90;8.60;;;;;;;2.77;100.00;98590.89;102978;1259;137736;-70
2023/12/11 10:16:37;;;;;;;19.70;8.60;;;;;;;2.72;100.00;98578.84;102293;1259;1003837;-69
2023/12/11 10:19:04;;;;;;;15.20;8.40;;;;;;;2.71;100.00;98582.81;102898;1256;139773;-69
2023/12/11 10:21:40;;;;;;;15.90;7.90;;;;;;;2.72;100.00;98587.95;102944;1257;107082;-69
2023/12/11 10:24:10;;;;;;;14.50;6.90;;;;;;;2.74;100.00;98574.14;102260;1259;1002864;-69
2023/12/11 10:26:44;;;;;;;11.20;7.10;;;;;;;2.76;100.00;98580.45;102920;1256;138964;-69
2023/12/11 10:29:22;;;;;;;11.30;6.90;;;;;;;2.79;100.00;98573.47;104358;1256;107184;-70
2023/12/11 10:31:49;;;;;;;12.00;7.00;;;;;;;2.84;100.00;98571.79;103052;1256;140460;-69
2023/12/11 10:34:16;;;;;;;12.90;7.20;;;;;;;2.92;100.00;98575.56;102372;1256;1002912;-69
2023/12/11 10:36:51;;;;;;;11.30;6.60;;;;;;;2.97;100.00;98574.70;103179;1256;97800;-69
2023/12/11 10:39:19;;;;;;;15.00;8.20;;;;;;;3.02;100.00;98573.51;104017;1256;111756;-69
2023/12/11 10:41:49;;;;;;;16.10;8.00;;;;;;;3.06;100.00;98562.95;103133;1260;107000;-68
2023/12/11 10:44:29;;;;;;;16.20;7.60;;;;;;;3.07;100.00;98561.39;102974;1260;138584;-69
2023/12/11 10:46:58;;;;;;;15.40;7.30;;;;;;;3.09;100.00;98564.76;103324;1257;107082;-71
2023/12/11 10:49:26;;;;;;;13.30;7.20;;;;;;;3.10;100.00;98556.15;102947;1255;138875;-69
2023/12/11 10:51:53;;;;;;;13.60;6.70;;;;;;;3.10;100.00;98552.70;102260;1256;1002647;-70
2023/12/11 10:54:20;;;;;;;14.20;6.50;;;;;;;3.15;100.00;98550.32;103019;1258;108368;-69
2023/12/11 10:56:49;;;;;;;14.50;7.00;;;;;;;3.19;100.00;98545.56;102935;1256;140192;-70
2023/12/11 10:59:16;;;;;;;12.10;6.80;;;;;;;3.23;100.00;98546.48;102991;1260;108739;-71
2023/12/11 11:01:46;;;;;;;11.50;6.70;;;;;;;3.26;100.00;98548.13;102946;1261;138822;-68
2023/12/11 11:04:15;;;;;;;15.80;7.30;;;;;;;3.29;100.00;98544.73;103158;1255;112216;-69
2023/12/11 11:06:53;;;;;;;10.80;6.80;;;;;;;3.32;100.00;98542.58;103134;1256;108869;-69